Terminal Aerodrome Forecast
Issued by NWS Cleveland, OH

Home | Current Version | Previous Version | Graphics & Text | Print | Product List | Glossary Off
Versions: 1 2 3 4 5 6 7 8 9 10 11 12 13 14 15 16 17 18 19 20

000
FTUS41 KCLE 201500 AAB
TAFCAK
TAF AMD
KCAK 201553Z 2016/2112 20012G20KT 6SM -SHRA VCTS SCT025CB OVC050
      TEMPO 2016/2018 2SM -SHRA SCT015 OVC025
     FM201900 22020G30KT P6SM OVC018
     FM210000 24015KT P6SM VCSH OVC035
     FM210900 24010KT P6SM SCT050 BKN100=

USA.gov is the U.S. government's official web portal to all federal, state and local government web resources and services.